• Join FlightAware (Why Join?)
  • Login
  • US Flag 
03:59AM EDT


 

Airport Tracker/Info


-or-


 

Live Flight TrackerFlight Track Log ✈ SKW5196 ✈ 24-Jun-2013 ✈ KORD - KSAT

Flight Track Log - Related Links

Times and Time Zones

All times are in EDT time to prevent confusion due to time zone crossing. See the SKW5196 flight status page for this flight to view local times or setup timezone preferences in your user account.

Time Position Orientation Groundspeed Altitude Reporting Facility
EDT Latitude Longitude Course Direction KTS MPH feet Rate Location/Type
08:28PM 41.9500 -87.9167 253° West 169 194 1,700  Level Chicago TRACON
08:29PM 41.9333 -88.0000 255° West 212 244 3,500 2,160 Climbing Chicago TRACON
08:31PM 41.9272 -88.1194 266° West 217 250 7,600 2,460 Climbing Chicago Center
08:32PM 41.7960 -88.6524 254° West  Level FlightAware Approximate
08:32PM 41.9161 -88.2183 261° West 225 259 10,300  Level Chicago Center
08:33PM 41.7622 -88.8046 253° West  Level FlightAware Approximate
08:33PM 41.8953 -88.3119 253° West 264 304 11,700  Level Chicago Center
08:34PM 41.8608 -88.4089 245° Southwest 287 330 13,700 1,740 Climbing Chicago Center
08:35PM 41.8236 -88.5067 243° Southwest 296 341 15,300 1,440 Climbing Chicago Center
08:36PM 41.7831 -88.6128 243° Southwest 318 366 16,700 1,500 Climbing Chicago Center
08:38PM 41.7256 -88.8769 254° West 344 396 20,000 1,440 Climbing Chicago Center
08:39PM 41.6992 -89.0006 254° West 347 399 21,300 1,260 Climbing Chicago Center
08:40PM 41.6703 -89.1256 253° West 353 406 22,600 1,260 Climbing Chicago Center
08:41PM 41.6422 -89.2511 253° West 356 410 23,900 1,200 Climbing Chicago Center
08:42PM 41.6136 -89.3772 253° West 357 411 25,100 1,080 Climbing Chicago Center
08:43PM 41.5783 -89.5339 253° West 364 419 26,200 960 Climbing Chicago Center
08:44PM 41.5486 -89.6681 254° West 373 429 27,100 960 Climbing Chicago Center
08:45PM 41.5167 -89.8047 253° West 383 441 28,200 960 Climbing Chicago Center
08:46PM 41.4864 -89.9417 254° West 386 444 29,100 840 Climbing Chicago Center
08:47PM 41.4550 -90.0794 253° West 390 449 30,000 780 Climbing Chicago Center
08:48PM 41.4222 -90.2219 253° West 400 460 30,700 540 Climbing Chicago Center
08:49PM 41.3886 -90.3675 253° West 409 471 31,200 540 Climbing Chicago Center
08:50PM 41.3458 -90.5492 253° West 426 490 31,900 660 Climbing Chicago Center
08:51PM 41.2931 -90.6961 244° Southwest 437 503 32,600 720 Climbing Chicago Center
08:52PM 41.2181 -90.8231 232° Southwest 437 503 33,400 840 Climbing Chicago Center
08:53PM 41.1422 -90.9483 231° Southwest 437 503 34,400 960 Climbing Chicago Center
08:54PM 41.0681 -91.0711 231° Southwest 432 497 35,400 780 Climbing Chicago Center
08:55PM 40.9961 -91.1903 231° Southwest 421 484 36,100 600 Climbing Chicago Center
08:56PM 40.9089 -91.3342 231° Southwest 422 486 36,700 480 Climbing Chicago Center
08:57PM 40.8361 -91.4536 231° Southwest 421 484 37,200 480 Climbing Chicago Center
08:58PM 40.7633 -91.5767 232° Southwest 426 490 37,700 360 Climbing Chicago Center
08:59PM 40.6903 -91.6956 231° Southwest 421 484 38,000 120 Climbing Chicago Center
09:00PM 40.6161 -91.8153 231° Southwest 424 488 38,000  Level Chicago Center
09:01PM 40.5433 -91.9356 231° Southwest 424 488 38,000  Level Chicago Center
09:03PM 40.4544 -92.0781 231° Southwest 423 487 38,000  Level Chicago Center
09:04PM 40.3806 -92.1978 231° Southwest 423 487 38,000  Level Chicago Center
09:05PM 40.3064 -92.3164 231° Southwest 422 486 38,000  Level Chicago Center
09:06PM 40.2303 -92.4364 230° Southwest 422 486 38,000  Level Chicago Center
09:07PM 40.1542 -92.5594 231° Southwest 427 491 38,000  Level Chicago Center
09:08PM 40.0786 -92.6769 230° Southwest 421 484 38,000  Level Chicago Center
09:09PM 40.0019 -92.7928 229° Southwest 421 484 38,000  Level Chicago Center
09:10PM 39.9092 -92.9306 229° Southwest 423 487 38,000  Level Chicago Center
09:11PM 39.8169 -93.0686 229° Southwest 424 488 38,000  Level Kansas City Center
09:12PM 39.7389 -93.1853 229° Southwest 428 493 38,000  Level Kansas City Center
09:13PM 39.6594 -93.3003 228° Southwest 430 495 38,000  Level Kansas City Center
09:14PM 39.5814 -93.4169 229° Southwest 431 496 38,000  Level Kansas City Center
09:15PM 39.5017 -93.5336 228° Southwest 434 499 38,000  Level Kansas City Center
09:16PM 39.4067 -93.6733 229° Southwest 434 499 38,000  Level Kansas City Center
09:17PM 39.3322 -93.7853 229° Southwest 432 497 38,000  Level Kansas City Center
09:18PM 39.2428 -93.9147 228° Southwest 432 497 38,000  Level Kansas City Center
09:19PM 39.1661 -94.0253 228° Southwest 431 496 38,000  Level Kansas City Center
09:20PM 39.0706 -94.1428 224° Southwest 427 491 38,000  Level Kansas City Center
09:21PM 38.9689 -94.2047 205° Southwest 419 482 38,000  Level Kansas City Center
09:22PM 38.8678 -94.2647 205° Southwest 418 481 38,000  Level Kansas City Center
09:23PM 38.7500 -94.3344 205° Southwest 415 478 38,000  Level Kansas City Center
09:24PM 38.6489 -94.3933 204° Southwest 416 479 38,000  Level Kansas City Center
09:25PM 38.5325 -94.4619 205° Southwest 413 475 38,000  Level Kansas City Center
09:27PM 38.4200 -94.5244 204° Southwest  Level FlightAware Approximate
09:27PM 38.3153 -94.5886 205° Southwest 411 473 38,000  Level Kansas City Center
09:31PM 38.0067 -94.7651 204° Southwest  Level FlightAware Approximate
09:31PM 38.0008 -94.7706 204° Southwest 410 472 38,000  Level Kansas City Center
09:32PM 37.9017 -94.8283 205° Southwest 410 472 38,000  Level Kansas City Center
09:33PM 37.7833 -94.8969 205° Southwest 415 478 38,000  Level Kansas City Center
09:34PM 37.7079 -94.9319 205° Southwest  Level FlightAware Approximate
09:34PM 37.6839 -94.9511 203° Southwest 410 472 38,000  Level Kansas City Center
09:35PM 37.5661 -95.0194 205° Southwest 414 476 38,000  Level Kansas City Center
09:36PM 37.4656 -95.0792 205° Southwest 417 480 38,000  Level Kansas City Center
09:37PM 37.3611 -95.1381 204° Southwest 413 475 38,000  Level Kansas City Center
09:38PM 37.2556 -95.1992 205° Southwest 416 479 38,000  Level Kansas City Center
09:39PM 37.1278 -95.2706 204° Southwest 418 481 38,000  Level Kansas City Center
09:40PM 37.0206 -95.3311 204° Southwest 421 484 38,000  Level Kansas City Center
09:41PM 36.9133 -95.3919 204° Southwest 422 486 38,000  Level Kansas City Center
09:42PM 36.8064 -95.4461 202° Southwest 417 480 38,000  Level Kansas City Center
09:43PM 36.6889 -95.4736 191° South 428 493 38,000  Level Kansas City Center
09:44PM 36.5656 -95.5056 192° South 426 490 38,000  Level Kansas City Center
09:45PM 36.4497 -95.5347 191° South 424 488 38,000  Level Kansas City Center
09:46PM 36.3308 -95.5603 190° South 427 491 38,000  Level Kansas City Center
09:47PM 36.1939 -95.6033 194° South 426 490 38,000  Level Kansas City Center
09:48PM 36.0839 -95.6486 198° South 419 482 38,000  Level Kansas City Center
09:49PM 35.9664 -95.6944 198° South 417 480 38,000  Level Kansas City Center
09:50PM 35.8556 -95.7367 197° South 417 480 38,000  Level Kansas City Center
09:51PM 35.7439 -95.7797 197° South 419 482 38,000  Level Kansas City Center
09:52PM 35.6328 -95.8214 197° South 418 481 38,000  Level Kansas City Center
09:53PM 35.5222 -95.8636 197° South 416 479 38,000  Level Kansas City Center
09:54PM 35.4122 -95.9061 197° South 415 478 38,000  Level Kansas City Center
09:55PM 35.2769 -95.9589 198° South 422 486 38,000  Level Fort Worth Center
09:56PM 35.1647 -96.0017 197° South 422 486 38,000  Level Fort Worth Center
09:57PM 35.0525 -96.0414 196° South 422 486 38,000  Level Fort Worth Center
09:58PM 34.9403 -96.0864 198° South 422 486 38,000  Level Fort Worth Center
09:59PM 34.8261 -96.1286 197° South 422 486 38,000  Level Fort Worth Center
10:00PM 34.7097 -96.1733 198° South 432 497 38,000  Level Fort Worth Center
10:01PM 34.5933 -96.2153 197° South 437 503 38,000  Level Fort Worth Center
10:02PM 34.4769 -96.2597 197° South 437 503 38,000  Level Fort Worth Center
10:03PM 34.3625 -96.3014 197° South 437 503 38,000  Level Fort Worth Center
10:04PM 34.2481 -96.3458 198° South 437 503 38,000  Level Fort Worth Center
10:05PM 34.1317 -96.3897 197° South 437 503 38,000  Level Fort Worth Center
10:06PM 34.0339 -96.4236 196° South 431 496 38,000  Level Fort Worth Center
10:07PM 33.9172 -96.4650 196° South 431 496 38,000  Level Fort Worth Center
10:08PM 33.8008 -96.5086 197° South 431 496 38,000  Level Fort Worth Center
10:09PM 33.6842 -96.5522 197° South 436 502 38,000  Level Fort Worth Center
10:10PM 33.5531 -96.5958 195° South 436 502 38,000  Level Fort Worth Center
10:11PM 33.4508 -96.6342 197° South 436 502 38,000  Level Fort Worth Center
10:12PM 33.3344 -96.6775 197° South 436 502 38,000  Level Fort Worth Center
10:13PM 33.2031 -96.7233 196° South 436 502 38,000  Level Fort Worth Center
10:14PM 33.0969 -96.7614 197° South 436 502 38,000  Level Fort Worth Center
10:15PM 32.9675 -96.8067 196° South 436 502 38,000  Level Fort Worth Center
10:16PM 32.8508 -96.8472 196° South 436 502 38,000  Level Fort Worth Center
10:17PM 32.7300 -96.8922 197° South 445 512 38,000  Level Fort Worth Center
10:18PM 32.6092 -96.9300 195° South 445 512 38,000  Level Fort Worth Center
10:19PM 32.4881 -96.9553 190° South 445 512 38,000  Level Fort Worth Center
10:20PM 32.3650 -96.9806 190° South 450 518 38,000  Level Fort Worth Center
10:21PM 32.2439 -97.0056 190° South 450 518 38,000  Level Fort Worth Center
10:22PM 32.1208 -97.0283 189° South 445 512 38,000  Level Fort Worth Center
10:23PM 31.9978 -97.0533 190° South 450 518 38,000  Level Fort Worth Center
10:24PM 31.8914 -97.0756 190° South 450 518 38,000  Level Fort Worth Center
10:25PM 31.7578 -97.1056 191° South 450 518 38,000  Level Fort Worth Center
10:26PM 31.6422 -97.1242 188° South 445 512 38,000  Level Houston Center
10:27PM 31.5181 -97.1497 190° South 446 513 38,000  Level Houston Center
10:28PM 31.3931 -97.1744 190° South 450 518 38,000  Level Houston Center
10:29PM 31.2683 -97.1983 189° South 449 517 38,000  Level Houston Center
10:30PM 31.1469 -97.2342 194° South 447 514 38,000  Level Houston Center
10:32PM 31.0306 -97.2792 198° South 450 518 38,000 -540 Level Houston Center
10:33PM 30.8892 -97.3342 198° South 452 520 36,900 -1,980 Descending Houston Center
10:34PM 30.7694 -97.3811 199° South 467 537 34,000 -2,880 Descending Houston Center
10:35PM 30.6497 -97.4267 198° South 454 522 31,000 -2,940 Descending Houston Center
10:36PM 30.5306 -97.4731 199° South 449 517 28,000 -3,000 Descending Houston Center
10:37PM 30.4103 -97.5206 199° South 451 519 24,900 -3,060 Descending Houston Center
10:38PM 30.2986 -97.5856 207° Southwest 450 518 21,800 -3,000 Descending Houston Center
10:39PM 30.1931 -97.6583 211° Southwest 440 506 18,800 -3,000 Descending Houston Center
10:40PM 30.0911 -97.7289 211° Southwest 426 490 15,700 -3,120 Descending Houston Center
10:41PM 30.0033 -97.7906 211° Southwest 394 453 13,100 -1,380 Descending Houston Center
10:42PM 29.8936 -97.8714 213° Southwest 383 441 13,000 -60 Descending Houston Center
10:43PM 29.8506 -97.9714 244° Southwest 331 381 13,000 -900 Level Houston Center
10:44PM 29.8125 -98.0642 245° Southwest 296 341 11,200 -1,800 Descending Houston Center
10:45PM 29.7842 -98.1581 251° West 286 329 9,300 -1,620 Descending Houston Center
10:46PM 29.7683 -98.2381 257° West 278 320 7,900 -1,500 Descending Houston Center
10:47PM 29.7511 -98.3264 257° West 265 305 6,300 -1,500 Descending Houston Center
10:48PM 29.7331 -98.4000 254° West 261 300 5,000 -1,080 Descending Houston Center
10:49PM 29.6972 -98.4658 238° Southwest 232 267 4,100 -1,080 Descending Houston Center
10:50PM 29.6744 -98.5153 242° Southwest 195 224 3,000 -720 Descending Houston Center
10:51PM 29.6433 -98.5672 235° Southwest 183 211 2,800 -300 Descending Houston Center
10:52PM 29.6022 -98.5528 163° South 141 162 2,400 -420 Descending Houston Center